Time;durP1;ratioP1;P1;durP2;ratioP2;P2;SDS_P1;SDS_P2;PMS_P1;PMS_P2;Temp;Humidity;BMP_temperature;BMP_pressure;BME280_temperature;BME280_humidity;BME280_pressure;Samples;Min_cycle;Max_cycle;Signal;HPM_P1;HPM_P2
2022/09/02 00:00:24;;;;;;;0.20;0.20;;;;;;;;;;5034889;28;20025;-76
2022/09/02 00:02:49;;;;;;;0.20;0.20;;;;;;;;;;5036741;28;20040;-76
2022/09/02 00:05:16;;;;;;;0.70;0.70;;;;;;;;;;5054706;28;20028;-76
2022/09/02 00:07:41;;;;;;;0.20;0.20;;;;;;;;;;5053896;28;20017;-78
2022/09/02 00:10:07;;;;;;;0.20;0.20;;;;;;;;;;5053323;28;20499;-77
2022/09/02 00:12:33;;;;;;;0.30;0.30;;;;;;;;;;5054062;28;20122;-76
2022/09/02 00:14:58;;;;;;;0.20;0.20;;;;;;;;;;5036554;28;20112;-77
2022/09/02 00:17:24;;;;;;;0.20;0.20;;;;;;;;;;5054464;28;20115;-77
2022/09/02 00:19:50;;;;;;;0.20;0.20;;;;;;;;;;5054330;28;20025;-77
2022/09/02 00:22:16;;;;;;;0.30;0.30;;;;;;;;;;5036603;28;20020;-78
2022/09/02 00:24:42;;;;;;;0.20;0.20;;;;;;;;;;5053434;28;20028;-77
2022/09/02 00:27:07;;;;;;;0.20;0.20;;;;;;;;;;5036273;28;20060;-76
2022/09/02 00:29:33;;;;;;;0.20;0.20;;;;;;;;;;5054064;28;20071;-76
2022/09/02 00:31:58;;;;;;;0.20;0.20;;;;;;;;;;5053944;28;20380;-76
2022/09/02 00:34:24;;;;;;;0.30;0.30;;;;;;;;;;5053980;28;20035;-76
2022/09/02 00:36:50;;;;;;;0.10;0.10;;;;;;;;;;5053870;28;20064;-78
2022/09/02 00:39:17;;;;;;;0.20;0.20;;;;;;;;;;5052734;28;20040;-77
2022/09/02 00:41:43;;;;;;;0.20;0.20;;;;;;;;;;5034400;28;20049;-75
2022/09/02 00:44:10;;;;;;;0.32;0.32;;;;;;;;;;5052759;28;20115;-76
2022/09/02 00:46:36;;;;;;;0.20;0.20;;;;;;;;;;5053395;28;20033;-77
2022/09/02 00:49:08;;;;;;;0.25;0.25;;;;;;;;;;5053622;28;20040;-76
2022/09/02 00:51:40;;;;;;;0.10;0.10;;;;;;;;;;5035472;28;20024;-77
2022/09/02 00:54:06;;;;;;;0.20;0.20;;;;;;;;;;5057688;28;20067;-78
2022/09/02 00:56:33;;;;;;;0.10;0.10;;;;;;;;;;5048717;28;20021;-78
2022/09/02 00:58:59;;;;;;;0.20;0.20;;;;;;;;;;5071435;28;20009;-82
2022/09/02 01:01:25;;;;;;;0.20;0.20;;;;;;;;;;5062687;28;20029;-83
2022/09/02 01:03:51;;;;;;;0.20;0.20;;;;;;;;;;5053429;28;20484;-81
2022/09/02 01:06:20;;;;;;;0.20;0.20;;;;;;;;;;5035572;28;20028;-82
2022/09/02 01:08:48;;;;;;;0.20;0.20;;;;;;;;;;5053600;28;20037;-81
2022/09/02 01:11:15;;;;;;;0.20;0.20;;;;;;;;;;5035614;28;20120;-81
2022/09/02 01:13:41;;;;;;;0.20;0.20;;;;;;;;;;5035518;28;20021;-77
2022/09/02 01:16:16;;;;;;;0.20;0.20;;;;;;;;;;5053304;28;20500;-77
2022/09/02 01:18:44;;;;;;;0.20;0.20;;;;;;;;;;5034333;28;20029;-77
2022/09/02 01:21:09;;;;;;;0.20;0.20;;;;;;;;;;5018593;28;20112;-78
2022/09/02 01:23:35;;;;;;;0.20;0.20;;;;;;;;;;5053343;28;20107;-76
2022/09/02 01:26:02;;;;;;;0.10;0.10;;;;;;;;;;5035434;28;20492;-75
2022/09/02 01:28:28;;;;;;;0.20;0.20;;;;;;;;;;5053063;28;20040;-77
2022/09/02 01:30:55;;;;;;;0.20;0.20;;;;;;;;;;5035212;28;20025;-77
2022/09/02 01:33:21;;;;;;;0.20;0.20;;;;;;;;;;5053095;28;20545;-77
2022/09/02 01:35:47;;;;;;;0.10;0.10;;;;;;;;;;5052829;28;20392;-77
2022/09/02 01:38:13;;;;;;;0.20;0.20;;;;;;;;;;5035446;28;20024;-78
2022/09/02 01:40:39;;;;;;;0.20;0.20;;;;;;;;;;5052926;28;20063;-78
2022/09/02 01:43:06;;;;;;;0.10;0.10;;;;;;;;;;5052879;28;20051;-77
2022/09/02 01:45:34;;;;;;;0.20;0.20;;;;;;;;;;5035074;28;20029;-78
2022/09/02 01:48:00;;;;;;;0.55;0.52;;;;;;;;;;5034089;28;20035;-78
2022/09/02 01:50:26;;;;;;;0.30;0.30;;;;;;;;;;5016901;28;20070;-79
2022/09/02 01:52:52;;;;;;;0.20;0.20;;;;;;;;;;5052754;28;20036;-80
2022/09/02 01:55:18;;;;;;;0.20;0.20;;;;;;;;;;5034818;28;20032;-80
2022/09/02 01:57:44;;;;;;;0.20;0.20;;;;;;;;;;5053040;28;20349;-81
2022/09/02 02:00:12;;;;;;;0.10;0.10;;;;;;;;;;5035174;28;20385;-80
2022/09/02 02:02:40;;;;;;;0.20;0.20;;;;;;;;;;5053090;28;20017;-81
2022/09/02 02:05:07;;;;;;;0.30;0.30;;;;;;;;;;5052598;28;20029;-81
2022/09/02 02:07:32;;;;;;;0.20;0.20;;;;;;;;;;5035008;28;20033;-78
2022/09/02 02:09:58;;;;;;;0.20;0.20;;;;;;;;;;5035063;28;20040;-77
2022/09/02 02:12:25;;;;;;;0.15;0.15;;;;;;;;;;5018266;28;20438;-77
2022/09/02 02:14:53;;;;;;;0.20;0.20;;;;;;;;;;5052593;28;20104;-77
2022/09/02 02:17:19;;;;;;;0.10;0.10;;;;;;;;;;5052305;28;20021;-77
2022/09/02 02:19:45;;;;;;;0.20;0.20;;;;;;;;;;5033465;28;20036;-77
2022/09/02 02:22:12;;;;;;;0.20;0.20;;;;;;;;;;5030388;28;20029;-77
2022/09/02 02:24:38;;;;;;;0.98;0.98;;;;;;;;;;5032917;28;20030;-75
2022/09/02 02:27:04;;;;;;;0.20;0.20;;;;;;;;;;5015072;28;20428;-75
2022/09/02 02:29:30;;;;;;;0.20;0.20;;;;;;;;;;5014943;28;20496;-75
2022/09/02 02:31:56;;;;;;;0.20;0.20;;;;;;;;;;5032347;28;20066;-73
2022/09/02 02:34:22;;;;;;;0.20;0.20;;;;;;;;;;5018267;28;20080;-76
2022/09/02 02:36:48;;;;;;;0.20;0.20;;;;;;;;;;5035127;28;20036;-76
2022/09/02 02:39:14;;;;;;;0.20;0.20;;;;;;;;;;5036289;28;20030;-77
2022/09/02 02:41:40;;;;;;;0.47;0.43;;;;;;;;;;5015026;28;20105;-76
2022/09/02 02:44:06;;;;;;;0.17;0.17;;;;;;;;;;5016227;28;20091;-76
2022/09/02 02:46:35;;;;;;;0.20;0.20;;;;;;;;;;5016247;28;20117;-77
2022/09/02 02:49:02;;;;;;;0.20;0.20;;;;;;;;;;5014690;28;20141;-76
2022/09/02 02:51:27;;;;;;;1.38;1.33;;;;;;;;;;5016178;28;20085;-77
2022/09/02 02:53:54;;;;;;;0.20;0.20;;;;;;;;;;4998852;28;20061;-80
2022/09/02 02:56:20;;;;;;;0.20;0.20;;;;;;;;;;5015076;28;20069;-77
2022/09/02 02:58:45;;;;;;;0.17;0.17;;;;;;;;;;5015721;28;20030;-78
2022/09/02 03:01:12;;;;;;;0.63;0.20;;;;;;;;;;5013513;28;20022;-76
2022/09/02 03:03:38;;;;;;;0.20;0.20;;;;;;;;;;5023939;28;20385;-77
2022/09/02 03:06:04;;;;;;;0.10;0.10;;;;;;;;;;5032423;28;20044;-77
2022/09/02 03:08:30;;;;;;;0.20;0.20;;;;;;;;;;5030435;28;20041;-77
2022/09/02 03:10:57;;;;;;;0.20;0.20;;;;;;;;;;5030257;28;20021;-81
2022/09/02 03:13:26;;;;;;;0.20;0.20;;;;;;;;;;5031922;28;20172;-80
2022/09/02 03:15:52;;;;;;;0.20;0.20;;;;;;;;;;5031664;28;20044;-81
2022/09/02 03:18:20;;;;;;;0.20;0.20;;;;;;;;;;5014226;28;20037;-81
2022/09/02 03:20:47;;;;;;;0.13;0.13;;;;;;;;;;5013734;28;20034;-77
2022/09/02 03:23:14;;;;;;;0.20;0.20;;;;;;;;;;5031355;28;20029;-76
2022/09/02 03:25:44;;;;;;;0.30;0.30;;;;;;;;;;5030290;28;20025;-77
2022/09/02 03:28:18;;;;;;;0.20;0.20;;;;;;;;;;5030262;28;20041;-77
2022/09/02 03:30:45;;;;;;;0.20;0.20;;;;;;;;;;5029552;28;20028;-77
2022/09/02 03:33:13;;;;;;;0.17;0.17;;;;;;;;;;5030294;28;20032;-77
2022/09/02 03:35:40;;;;;;;3.95;1.75;;;;;;;;;;5014352;28;20381;-77
2022/09/02 03:38:07;;;;;;;0.20;0.20;;;;;;;;;;5030430;28;20029;-77
2022/09/02 03:40:34;;;;;;;0.28;0.28;;;;;;;;;;5029331;28;20132;-77
2022/09/02 03:43:01;;;;;;;0.20;0.20;;;;;;;;;;5029089;28;20021;-77
2022/09/02 03:45:28;;;;;;;0.20;0.20;;;;;;;;;;5025356;28;20037;-77
2022/09/02 03:47:54;;;;;;;0.20;0.20;;;;;;;;;;5011292;28;20492;-77
2022/09/02 03:50:23;;;;;;;;;;;;;;;;;;5011531;28;20029;-77
2022/09/02 03:52:49;;;;;;;0.25;0.25;;;;;;;;;;5011286;28;19909;-78
2022/09/02 03:55:18;;;;;;;0.22;0.22;;;;;;;;;;5010865;28;20054;-78
2022/09/02 03:57:44;;;;;;;0.20;0.20;;;;;;;;;;5009857;28;20109;-79
2022/09/02 04:00:10;;;;;;;0.20;0.20;;;;;;;;;;4993686;28;20129;-80
2022/09/02 04:02:40;;;;;;;0.17;0.17;;;;;;;;;;5009867;28;20080;-78
2022/09/02 04:05:11;;;;;;;0.20;0.20;;;;;;;;;;5007315;28;20041;-79
2022/09/02 04:07:38;;;;;;;0.20;0.20;;;;;;;;;;4994071;28;20030;-79
2022/09/02 04:10:04;;;;;;;0.20;0.20;;;;;;;;;;5010877;28;20398;-79
2022/09/02 04:12:30;;;;;;;0.20;0.20;;;;;;;;;;5009258;28;20068;-80
2022/09/02 04:14:55;;;;;;;0.38;0.38;;;;;;;;;;5006525;28;20054;-78
2022/09/02 04:17:21;;;;;;;0.30;0.30;;;;;;;;;;5008848;28;20021;-78
2022/09/02 04:19:47;;;;;;;0.20;0.20;;;;;;;;;;5011096;28;20037;-77
2022/09/02 04:22:13;;;;;;;0.20;0.20;;;;;;;;;;5009618;28;20250;-77
2022/09/02 04:24:38;;;;;;;0.20;0.20;;;;;;;;;;5010363;28;20121;-77
2022/09/02 04:27:04;;;;;;;0.20;0.20;;;;;;;;;;4992329;28;20061;-77
2022/09/02 04:29:33;;;;;;;0.20;0.20;;;;;;;;;;5010419;28;20129;-78
2022/09/02 04:31:59;;;;;;;0.20;0.20;;;;;;;;;;5009972;28;20199;-78
2022/09/02 04:34:25;;;;;;;0.20;0.20;;;;;;;;;;5009888;28;20120;-79
2022/09/02 04:36:51;;;;;;;0.20;0.20;;;;;;;;;;5008703;28;20105;-80
2022/09/02 04:39:18;;;;;;;0.20;0.20;;;;;;;;;;5009061;28;20493;-79
2022/09/02 04:41:44;;;;;;;0.20;0.20;;;;;;;;;;5024481;28;20056;-79
2022/09/02 04:44:12;;;;;;;0.22;0.22;;;;;;;;;;5028706;28;20132;-78
2022/09/02 04:46:41;;;;;;;0.20;0.20;;;;;;;;;;5029080;28;20025;-79
2022/09/02 04:49:12;;;;;;;0.10;0.10;;;;;;;;;;5029077;28;20041;-79
2022/09/02 04:51:41;;;;;;;0.20;0.20;;;;;;;;;;5030042;28;20059;-81
2022/09/02 04:54:08;;;;;;;0.10;0.10;;;;;;;;;;5029605;28;20159;-79
2022/09/02 04:56:37;;;;;;;0.20;0.20;;;;;;;;;;5010171;28;20095;-80
2022/09/02 04:59:04;;;;;;;0.15;0.15;;;;;;;;;;4997532;28;20034;-79
2022/09/02 05:01:31;;;;;;;0.20;0.20;;;;;;;;;;5026327;28;20127;-78
2022/09/02 05:04:01;;;;;;;0.20;0.20;;;;;;;;;;5030033;28;20069;-79
2022/09/02 05:06:33;;;;;;;0.20;0.20;;;;;;;;;;5027539;28;20080;-79
2022/09/02 05:09:01;;;;;;;0.20;0.20;;;;;;;;;;5029473;28;20072;-80
2022/09/02 05:11:32;;;;;;;0.20;0.20;;;;;;;;;;5028370;28;20037;-79
2022/09/02 05:14:01;;;;;;;0.20;0.20;;;;;;;;;;5027796;28;20087;-78
2022/09/02 05:16:29;;;;;;;0.17;0.17;;;;;;;;;;5026160;28;20026;-80
2022/09/02 05:18:55;;;;;;;0.20;0.20;;;;;;;;;;5028201;28;20030;-76
2022/09/02 05:21:23;;;;;;;0.20;0.20;;;;;;;;;;5024706;28;20206;-77
2022/09/02 05:23:50;;;;;;;0.30;0.30;;;;;;;;;;5027650;28;20452;-77
2022/09/02 05:26:16;;;;;;;0.20;0.20;;;;;;;;;;5029474;28;20470;-78
2022/09/02 05:28:42;;;;;;;0.20;0.20;;;;;;;;;;5026854;28;20034;-78
2022/09/02 05:31:10;;;;;;;0.20;0.20;;;;;;;;;;5029824;28;20036;-77
2022/09/02 05:33:37;;;;;;;0.20;0.20;;;;;;;;;;5027700;28;20472;-78
2022/09/02 05:36:04;;;;;;;0.20;0.20;;;;;;;;;;5030722;28;20026;-79
2022/09/02 05:38:30;;;;;;;0.30;0.30;;;;;;;;;;5031030;28;20030;-80
2022/09/02 05:40:58;;;;;;;0.73;0.73;;;;;;;;;;5014628;28;20046;-79
2022/09/02 05:43:24;;;;;;;0.20;0.20;;;;;;;;;;5007164;28;20033;-79
2022/09/02 05:45:50;;;;;;;9.75;6.32;;;;;;;;;;5012076;28;20030;-79
2022/09/02 05:51:04;;;;;;;1.45;1.30;;;;;;;;;;5023859;28;20116;-79
2022/09/02 05:53:31;;;;;;;0.20;0.20;;;;;;;;;;5006796;28;20072;-78
2022/09/02 05:55:57;;;;;;;0.20;0.20;;;;;;;;;;5020645;28;20077;-77
2022/09/02 05:58:24;;;;;;;0.55;0.40;;;;;;;;;;5024158;28;20560;-75
2022/09/02 06:00:51;;;;;;;0.20;0.20;;;;;;;;;;5024206;28;20034;-77
2022/09/02 06:03:18;;;;;;;0.50;0.50;;;;;;;;;;5017271;28;20040;-77
2022/09/02 06:05:56;;;;;;;0.10;0.10;;;;;;;;;;5021257;28;20511;-77
2022/09/02 06:08:22;;;;;;;0.20;0.20;;;;;;;;;;5024113;28;20511;-79
2022/09/02 06:10:48;;;;;;;0.20;0.20;;;;;;;;;;5006621;28;20049;-77
2022/09/02 06:13:21;;;;;;;0.20;0.20;;;;;;;;;;5024473;28;20025;-77
2022/09/02 06:15:48;;;;;;;0.20;0.20;;;;;;;;;;5028340;28;20036;-77
2022/09/02 06:18:15;;;;;;;0.30;0.30;;;;;;;;;;5027984;28;20037;-77
2022/09/02 06:20:44;;;;;;;0.20;0.20;;;;;;;;;;5030823;28;20033;-79
2022/09/02 06:23:12;;;;;;;0.20;0.20;;;;;;;;;;5030623;28;20029;-78
2022/09/02 06:25:41;;;;;;;0.20;0.20;;;;;;;;;;5030093;28;20029;-79
2022/09/02 06:28:08;;;;;;;0.25;0.25;;;;;;;;;;5021210;28;20038;-78
2022/09/02 06:30:39;;;;;;;0.20;0.20;;;;;;;;;;5020654;28;20029;-80
2022/09/02 06:33:04;;;;;;;0.40;0.40;;;;;;;;;;5024900;28;20113;-79
2022/09/02 06:35:35;;;;;;;0.20;0.20;;;;;;;;;;5029279;28;20033;-78
2022/09/02 06:38:00;;;;;;;0.25;0.25;;;;;;;;;;5028667;28;20485;-77
2022/09/02 06:40:26;;;;;;;0.22;0.22;;;;;;;;;;5028820;28;20072;-79
2022/09/02 06:42:52;;;;;;;0.20;0.20;;;;;;;;;;5028550;28;20444;-79
2022/09/02 06:45:31;;;;;;;0.22;0.22;;;;;;;;;;5014400;28;20462;-80
2022/09/02 06:48:01;;;;;;;0.20;0.20;;;;;;;;;;5027421;28;20025;-78
2022/09/02 06:50:31;;;;;;;0.20;0.20;;;;;;;;;;5026578;28;20519;-78
2022/09/02 06:52:57;;;;;;;0.20;0.20;;;;;;;;;;5027919;28;20029;-79
2022/09/02 06:55:22;;;;;;;0.20;0.20;;;;;;;;;;5012369;28;20409;-77
2022/09/02 06:57:48;;;;;;;0.30;0.30;;;;;;;;;;5009014;28;20062;-76
2022/09/02 07:00:15;;;;;;;0.20;0.20;;;;;;;;;;5011454;28;20033;-78
2022/09/02 07:02:44;;;;;;;0.10;0.10;;;;;;;;;;4991952;28;20532;-77
2022/09/02 07:05:27;;;;;;;0.20;0.20;;;;;;;;;;5007748;28;20810;-77
2022/09/02 07:07:54;;;;;;;0.25;0.25;;;;;;;;;;5008635;28;20022;-78
2022/09/02 07:10:20;;;;;;;0.15;0.15;;;;;;;;;;5008282;28;20037;-78
2022/09/02 07:12:50;;;;;;;0.35;0.35;;;;;;;;;;5008460;28;20481;-78
2022/09/02 07:15:16;;;;;;;0.20;0.20;;;;;;;;;;4992920;28;20096;-77
2022/09/02 07:17:43;;;;;;;0.30;0.30;;;;;;;;;;5010174;28;20030;-79
2022/09/02 07:20:17;;;;;;;0.20;0.20;;;;;;;;;;5011800;28;20065;-79
2022/09/02 07:22:49;;;;;;;0.20;0.20;;;;;;;;;;5028657;28;20061;-76
2022/09/02 07:25:17;;;;;;;0.20;0.20;;;;;;;;;;5011824;28;20477;-76
2022/09/02 07:27:43;;;;;;;0.20;0.20;;;;;;;;;;5030675;28;20127;-76
2022/09/02 07:30:11;;;;;;;0.20;0.20;;;;;;;;;;5030680;28;20040;-77
2022/09/02 07:32:39;;;;;;;8.07;5.57;;;;;;;;;;5029345;28;20489;-77
2022/09/02 07:35:08;;;;;;;0.20;0.20;;;;;;;;;;5013469;28;20052;-79
2022/09/02 07:37:34;;;;;;;0.22;0.22;;;;;;;;;;5026500;28;20034;-77
2022/09/02 07:40:01;;;;;;;0.20;0.20;;;;;;;;;;5030925;28;20033;-76
2022/09/02 07:42:27;;;;;;;0.30;0.30;;;;;;;;;;5047835;28;20079;-79
2022/09/02 07:44:53;;;;;;;0.30;0.30;;;;;;;;;;5048766;28;20632;-80
2022/09/02 07:47:18;;;;;;;0.40;0.40;;;;;;;;;;5030695;28;20032;-77
2022/09/02 07:49:45;;;;;;;0.30;0.30;;;;;;;;;;5030442;28;20063;-78
2022/09/02 07:52:11;;;;;;;0.30;0.30;;;;;;;;;;5030699;28;20156;-77
2022/09/02 07:54:37;;;;;;;0.30;0.30;;;;;;;;;;5030839;28;20033;-76
2022/09/02 07:57:04;;;;;;;0.30;0.30;;;;;;;;;;5050438;28;20511;-78
2022/09/02 07:59:31;;;;;;;0.20;0.20;;;;;;;;;;5013800;28;20040;-77
2022/09/02 08:01:58;;;;;;;0.30;0.30;;;;;;;;;;5047329;28;20033;-77
2022/09/02 08:04:24;;;;;;;0.20;0.20;;;;;;;;;;5052148;28;20033;-78
2022/09/02 08:06:51;;;;;;;0.40;0.40;;;;;;;;;;5052621;28;20103;-78
2022/09/02 08:09:17;;;;;;;0.30;0.30;;;;;;;;;;5052175;28;20051;-78
2022/09/02 08:11:45;;;;;;;0.30;0.30;;;;;;;;;;5070172;28;20021;-78
2022/09/02 08:14:12;;;;;;;0.40;0.40;;;;;;;;;;5070424;28;20059;-77
2022/09/02 08:16:38;;;;;;;0.30;0.30;;;;;;;;;;5070108;28;20024;-77
2022/09/02 08:19:04;;;;;;;0.30;0.30;;;;;;;;;;5032650;28;20440;-78
2022/09/02 08:21:30;;;;;;;0.30;0.30;;;;;;;;;;5009204;28;20052;-78
2022/09/02 08:23:56;;;;;;;0.30;0.30;;;;;;;;;;5048852;28;20036;-77
2022/09/02 08:26:21;;;;;;;0.20;0.20;;;;;;;;;;5031641;28;20025;-77
2022/09/02 08:28:47;;;;;;;0.32;0.32;;;;;;;;;;5049950;28;20036;-77
2022/09/02 08:31:12;;;;;;;0.30;0.30;;;;;;;;;;5031319;28;20047;-76
2022/09/02 08:33:38;;;;;;;0.30;0.30;;;;;;;;;;5049929;28;20491;-77
2022/09/02 08:36:09;;;;;;;0.52;0.35;;;;;;;;;;5049090;28;20029;-79
2022/09/02 08:38:35;;;;;;;0.43;0.43;;;;;;;;;;5031560;28;20033;-78
2022/09/02 08:41:10;;;;;;;0.30;0.30;;;;;;;;;;5031681;28;20056;-78
2022/09/02 08:43:41;;;;;;;0.32;0.32;;;;;;;;;;5050069;28;20491;-78
2022/09/02 08:46:08;;;;;;;0.50;0.50;;;;;;;;;;5031909;28;20040;-78
2022/09/02 08:48:36;;;;;;;0.30;0.30;;;;;;;;;;5049273;28;20107;-78
2022/09/02 08:51:07;;;;;;;0.30;0.30;;;;;;;;;;5035982;28;20026;-78
2022/09/02 08:53:38;;;;;;;0.30;0.30;;;;;;;;;;5048054;28;20025;-78
2022/09/02 08:56:05;;;;;;;0.30;0.30;;;;;;;;;;5030364;28;20323;-79
2022/09/02 08:58:38;;;;;;;0.30;0.30;;;;;;;;;;5047941;28;20017;-78
2022/09/02 09:01:16;;;;;;;0.40;0.40;;;;;;;;;;5047669;28;20425;-76
2022/09/02 09:04:00;;;;;;;0.30;0.30;;;;;;;;;;5048011;28;20093;-80
2022/09/02 09:06:35;;;;;;;0.20;0.20;;;;;;;;;;5030315;28;20021;-80
2022/09/02 09:09:09;;;;;;;0.30;0.30;;;;;;;;;;5048968;28;20123;-80
2022/09/02 09:11:50;;;;;;;1.25;0.85;;;;;;;;;;5049206;28;20025;-78
2022/09/02 09:14:19;;;;;;;10.23;1.65;;;;;;;;;;5049180;28;20377;-80
2022/09/02 09:16:54;;;;;;;0.30;0.30;;;;;;;;;;5031495;28;20033;-79
2022/09/02 09:19:29;;;;;;;0.30;0.30;;;;;;;;;;5014821;28;20095;-78
2022/09/02 09:21:59;;;;;;;0.30;0.30;;;;;;;;;;5049385;28;20025;-79
2022/09/02 09:24:29;;;;;;;0.30;0.30;;;;;;;;;;5030818;28;20025;-77
2022/09/02 09:26:54;;;;;;;1.10;0.88;;;;;;;;;;5049033;28;20060;-81
2022/09/02 09:29:20;;;;;;;0.22;0.22;;;;;;;;;;5049045;28;20076;-77
2022/09/02 09:31:50;;;;;;;1.45;0.52;;;;;;;;;;5056578;28;20045;-79
2022/09/02 09:34:15;;;;;;;0.30;0.30;;;;;;;;;;5011607;28;20029;-79
2022/09/02 09:36:41;;;;;;;0.20;0.20;;;;;;;;;;5028625;28;20112;-80
2022/09/02 09:39:30;;;;;;;0.30;0.30;;;;;;;;;;5011274;28;20081;-80
2022/09/02 09:41:58;;;;;;;4.95;0.55;;;;;;;;;;5023427;28;20045;-79
2022/09/02 09:44:43;;;;;;;0.30;0.30;;;;;;;;;;5032727;28;20025;-80
2022/09/02 09:47:19;;;;;;;0.30;0.30;;;;;;;;;;5033151;28;20044;-79
2022/09/02 09:49:47;;;;;;;1.27;0.77;;;;;;;;;;5015250;28;20041;-79
2022/09/02 09:52:33;;;;;;;0.50;0.50;;;;;;;;;;5015634;28;20031;-77
2022/09/02 09:55:19;;;;;;;0.20;0.20;;;;;;;;;;5032554;28;20037;-79
2022/09/02 09:57:46;;;;;;;0.30;0.30;;;;;;;;;;5014693;28;20493;-79
2022/09/02 10:00:11;;;;;;;0.30;0.30;;;;;;;;;;5033169;28;20025;-79
2022/09/02 10:02:44;;;;;;;0.30;0.30;;;;;;;;;;5032542;28;20045;-77
2022/09/02 10:05:16;;;;;;;0.30;0.30;;;;;;;;;;5032730;28;20079;-78
2022/09/02 10:07:41;;;;;;;0.40;0.40;;;;;;;;;;5032473;28;20033;-78
2022/09/02 10:10:10;;;;;;;0.30;0.30;;;;;;;;;;5014499;28;20509;-78
2022/09/02 10:12:36;;;;;;;0.40;0.40;;;;;;;;;;5032406;28;20034;-79
2022/09/02 10:15:02;;;;;;;0.30;0.30;;;;;;;;;;5015008;28;20079;-79
2022/09/02 10:17:27;;;;;;;0.40;0.40;;;;;;;;;;5032455;28;20084;-79
2022/09/02 10:19:55;;;;;;;2.60;1.15;;;;;;;;;;5032844;28;20850;-79
2022/09/02 10:22:36;;;;;;;0.30;0.30;;;;;;;;;;5032978;28;20030;-78
2022/09/02 10:25:06;;;;;;;0.40;0.40;;;;;;;;;;4998622;28;20496;-78
2022/09/02 10:27:35;;;;;;;0.40;0.40;;;;;;;;;;5015365;28;20275;-79
2022/09/02 10:30:04;;;;;;;0.32;0.32;;;;;;;;;;5031563;28;20120;-78
2022/09/02 10:32:38;;;;;;;0.30;0.30;;;;;;;;;;5014263;28;20030;-80
2022/09/02 10:35:09;;;;;;;0.40;0.40;;;;;;;;;;5032295;28;20075;-79
2022/09/02 10:37:54;;;;;;;0.43;0.43;;;;;;;;;;5014678;28;20099;-78
2022/09/02 10:40:24;;;;;;;0.40;0.40;;;;;;;;;;5012731;28;20042;-78
2022/09/02 10:42:53;;;;;;;0.40;0.40;;;;;;;;;;5030768;28;20426;-78
2022/09/02 10:45:33;;;;;;;0.40;0.40;;;;;;;;;;5011895;28;20380;-77
2022/09/02 10:48:12;;;;;;;0.40;0.40;;;;;;;;;;5010809;28;20061;-79
2022/09/02 10:51:00;;;;;;;0.40;0.40;;;;;;;;;;5029955;28;20036;-77
2022/09/02 10:53:37;;;;;;;0.45;0.45;;;;;;;;;;5021540;28;20279;-78
2022/09/02 10:56:29;;;;;;;0.60;0.60;;;;;;;;;;5031929;28;20461;-76
2022/09/02 10:59:09;;;;;;;0.40;0.40;;;;;;;;;;5028748;28;20140;-79
2022/09/02 11:01:36;;;;;;;0.50;0.50;;;;;;;;;;5032010;28;20290;-77
2022/09/02 11:04:05;;;;;;;0.40;0.40;;;;;;;;;;5014181;28;20038;-77
2022/09/02 11:06:34;;;;;;;0.40;0.40;;;;;;;;;;5031343;28;20026;-76
2022/09/02 11:09:01;;;;;;;0.70;0.70;;;;;;;;;;5013999;28;20041;-77
2022/09/02 11:11:41;;;;;;;0.50;0.50;;;;;;;;;;5031692;28;20033;-77
2022/09/02 11:14:33;;;;;;;0.40;0.40;;;;;;;;;;4997784;28;20029;-78
2022/09/02 11:17:06;;;;;;;1.65;1.02;;;;;;;;;;5031647;28;20026;-78
2022/09/02 11:19:38;;;;;;;4.75;0.95;;;;;;;;;;5013709;28;20065;-76
2022/09/02 11:22:06;;;;;;;0.40;0.40;;;;;;;;;;5031800;28;20068;-78
2022/09/02 11:24:37;;;;;;;0.50;0.50;;;;;;;;;;5031176;28;20021;-78
2022/09/02 11:27:10;;;;;;;0.28;0.28;;;;;;;;;;4997408;28;20053;-76
2022/09/02 11:29:39;;;;;;;1.75;0.77;;;;;;;;;;5031207;28;20049;-76
2022/09/02 11:32:05;;;;;;;0.55;0.55;;;;;;;;;;5013661;28;20072;-77
2022/09/02 11:34:39;;;;;;;0.77;0.77;;;;;;;;;;5013355;28;20072;-78
2022/09/02 11:37:06;;;;;;;0.60;0.60;;;;;;;;;;4997131;28;20053;-77
2022/09/02 11:39:37;;;;;;;0.82;0.82;;;;;;;;;;5031212;28;20022;-77
2022/09/02 11:42:03;;;;;;;0.30;0.30;;;;;;;;;;5036961;28;20060;-76
2022/09/02 11:44:34;;;;;;;0.30;0.30;;;;;;;;;;5041391;28;20024;-77
2022/09/02 11:47:15;;;;;;;0.30;0.30;;;;;;;;;;5031128;28;20068;-78
2022/09/02 11:49:50;;;;;;;0.40;0.40;;;;;;;;;;5045397;28;20040;-76
2022/09/02 11:52:43;;;;;;;0.43;0.43;;;;;;;;;;5011952;28;20040;-76
2022/09/02 11:55:15;;;;;;;1.77;1.02;;;;;;;;;;5012865;28;20033;-76
2022/09/02 11:57:41;;;;;;;0.60;0.60;;;;;;;;;;5031048;28;20423;-77
2022/09/02 12:00:10;;;;;;;0.40;0.40;;;;;;;;;;5029771;28;20021;-78
2022/09/02 12:02:45;;;;;;;0.47;0.47;;;;;;;;;;5030322;28;20040;-78
2022/09/02 12:05:28;;;;;;;0.52;0.52;;;;;;;;;;5029402;28;20037;-77
2022/09/02 12:07:58;;;;;;;0.40;0.40;;;;;;;;;;5031354;28;20029;-79
2022/09/02 12:10:40;;;;;;;0.40;0.40;;;;;;;;;;5030623;28;20040;-78
2022/09/02 12:13:06;;;;;;;1.02;0.93;;;;;;;;;;5030226;28;20419;-76
2022/09/02 12:15:34;;;;;;;0.40;0.40;;;;;;;;;;5012539;28;20026;-80
2022/09/02 12:18:13;;;;;;;0.30;0.30;;;;;;;;;;5012964;28;20043;-79
2022/09/02 12:20:40;;;;;;;0.40;0.40;;;;;;;;;;5011883;28;20504;-79
2022/09/02 12:23:18;;;;;;;0.47;0.47;;;;;;;;;;5030187;28;20072;-78
2022/09/02 12:25:48;;;;;;;0.50;0.50;;;;;;;;;;5030371;28;20033;-77
2022/09/02 12:28:22;;;;;;;0.57;0.57;;;;;;;;;;5030177;28;20025;-78
2022/09/02 12:31:16;;;;;;;0.80;0.60;;;;;;;;;;5012560;28;20550;-79
2022/09/02 12:33:44;;;;;;;3.22;1.00;;;;;;;;;;5011089;28;20049;-76
2022/09/02 12:36:28;;;;;;;0.73;0.73;;;;;;;;;;5011772;28;20056;-78
2022/09/02 12:38:53;;;;;;;1.83;0.75;;;;;;;;;;5029919;28;20041;-78
2022/09/02 12:41:21;;;;;;;0.45;0.45;;;;;;;;;;5012114;28;20049;-77
2022/09/02 12:43:50;;;;;;;1.30;0.57;;;;;;;;;;5029831;28;20026;-76
2022/09/02 12:46:16;;;;;;;0.30;0.30;;;;;;;;;;5029491;28;20419;-78
2022/09/02 12:48:44;;;;;;;0.30;0.30;;;;;;;;;;5029398;28;20052;-79
2022/09/02 12:51:10;;;;;;;1.20;1.00;;;;;;;;;;5029796;28;20035;-77
2022/09/02 12:53:38;;;;;;;0.50;0.50;;;;;;;;;;5030062;28;20037;-77
2022/09/02 12:56:07;;;;;;;0.30;0.30;;;;;;;;;;5030004;28;20021;-77
2022/09/02 12:58:44;;;;;;;0.57;0.57;;;;;;;;;;5012180;28;20029;-77
2022/09/02 13:01:16;;;;;;;0.63;0.63;;;;;;;;;;5012602;28;20063;-76
2022/09/02 13:03:41;;;;;;;0.93;0.50;;;;;;;;;;5011577;28;20481;-76
2022/09/02 13:06:13;;;;;;;0.30;0.30;;;;;;;;;;5029752;28;20115;-75
2022/09/02 13:08:38;;;;;;;1.38;0.50;;;;;;;;;;5011403;28;20061;-75
2022/09/02 13:11:16;;;;;;;1.02;0.70;;;;;;;;;;5029793;28;20116;-77
2022/09/02 13:14:00;;;;;;;0.30;0.30;;;;;;;;;;5030444;28;20025;-76
2022/09/02 13:16:41;;;;;;;0.30;0.30;;;;;;;;;;5047290;28;20083;-76
2022/09/02 13:19:25;;;;;;;1.50;1.08;;;;;;;;;;5049172;28;20056;-76
2022/09/02 13:22:09;;;;;;;0.75;0.52;;;;;;;;;;5049514;28;20029;-75
2022/09/02 13:24:35;;;;;;;0.95;0.70;;;;;;;;;;5049174;28;20047;-75
2022/09/02 13:27:12;;;;;;;1.17;0.52;;;;;;;;;;5049204;28;20108;-75
2022/09/02 13:29:57;;;;;;;1.02;0.75;;;;;;;;;;5031048;28;20044;-77
2022/09/02 13:32:24;;;;;;;0.30;0.30;;;;;;;;;;5048602;28;20473;-77
2022/09/02 13:34:51;;;;;;;0.47;0.47;;;;;;;;;;5049228;28;20473;-76
2022/09/02 13:37:34;;;;;;;0.35;0.35;;;;;;;;;;5049367;28;20070;-76
2022/09/02 13:40:16;;;;;;;1.48;0.50;;;;;;;;;;5047997;28;20033;-79
2022/09/02 13:42:46;;;;;;;2.50;1.20;;;;;;;;;;5017803;28;20041;-75
2022/09/02 13:45:17;;;;;;;0.60;0.40;;;;;;;;;;5010877;28;20116;-77
2022/09/02 13:47:43;;;;;;;0.77;0.47;;;;;;;;;;5027936;28;20034;-75
2022/09/02 13:50:11;;;;;;;0.93;0.77;;;;;;;;;;5027371;28;20034;-74
2022/09/02 13:52:37;;;;;;;0.30;0.30;;;;;;;;;;5027149;28;20121;-75
2022/09/02 13:55:04;;;;;;;0.40;0.40;;;;;;;;;;5010773;28;20026;-76
2022/09/02 13:57:30;;;;;;;1.83;0.77;;;;;;;;;;5027849;28;20053;-76
2022/09/02 13:59:55;;;;;;;0.47;0.47;;;;;;;;;;5027710;28;20587;-75
2022/09/02 14:02:28;;;;;;;0.50;0.50;;;;;;;;;;5028599;28;20044;-74
2022/09/02 14:04:57;;;;;;;0.73;0.73;;;;;;;;;;5027892;28;20089;-75
2022/09/02 14:07:26;;;;;;;0.73;0.70;;;;;;;;;;5029230;28;20512;-73
2022/09/02 14:09:51;;;;;;;0.68;0.68;;;;;;;;;;5011599;28;20033;-73
2022/09/02 14:12:17;;;;;;;0.40;0.40;;;;;;;;;;5029026;28;20365;-73
2022/09/02 14:14:43;;;;;;;0.45;0.45;;;;;;;;;;5028766;28;20033;-75
2022/09/02 14:17:24;;;;;;;1.13;0.60;;;;;;;;;;5028987;28;20385;-75
2022/09/02 14:19:50;;;;;;;0.60;0.50;;;;;;;;;;5029071;28;20029;-75
2022/09/02 14:22:23;;;;;;;1.13;0.95;;;;;;;;;;5028773;28;20080;-75
2022/09/02 14:24:48;;;;;;;0.88;0.80;;;;;;;;;;5028842;28;20384;-75
2022/09/02 14:27:18;;;;;;;0.20;0.20;;;;;;;;;;5028497;28;20037;-76
2022/09/02 14:29:44;;;;;;;0.30;0.30;;;;;;;;;;5032053;28;20073;-76
2022/09/02 14:32:14;;;;;;;0.30;0.30;;;;;;;;;;5032716;28;20013;-75
2022/09/02 14:34:42;;;;;;;0.40;0.40;;;;;;;;;;4998085;28;20052;-76
2022/09/02 14:37:34;;;;;;;1.25;0.80;;;;;;;;;;5014975;28;20033;-73
2022/09/02 14:40:10;;;;;;;0.30;0.30;;;;;;;;;;5028223;28;20469;-74
2022/09/02 14:43:01;;;;;;;0.47;0.47;;;;;;;;;;5032304;28;20025;-76
2022/09/02 14:45:28;;;;;;;1.10;0.50;;;;;;;;;;5028162;28;20052;-76
2022/09/02 14:47:54;;;;;;;4.30;0.45;;;;;;;;;;5032361;28;20084;-76
2022/09/02 14:50:22;;;;;;;0.85;0.75;;;;;;;;;;5032066;28;20367;-76
2022/09/02 14:52:49;;;;;;;1.65;0.47;;;;;;;;;;5032163;28;20034;-77
2022/09/02 14:55:33;;;;;;;0.40;0.40;;;;;;;;;;5032038;28;20425;-76
2022/09/02 14:58:01;;;;;;;0.57;0.57;;;;;;;;;;5032243;28;20029;-76